GMT,Max TemperatureF,Mean TemperatureF,Min TemperatureF,Max Dew PointF,MeanDew PointF,Min DewpointF,Max Humidity, Mean Humidity, Min Humidity, Max Sea Level PressureIn, Mean Sea Level PressureIn, Min Sea Level PressureIn, Max VisibilityMiles, Mean VisibilityMiles, Min VisibilityMiles, Max Wind SpeedMPH, Mean Wind SpeedMPH, Max Gust SpeedMPH,PrecipitationIn, CloudCover, Events, WindDirDegrees
2013-10-1,59,56,53,50,48,46,77,72,67,29.86,29.83,29.80,6,6,5,17,13,,0.00,2,,110
2013-10-2,60,56,53,54,52,50,88,81,77,29.80,29.79,29.77,6,6,5,10,8,,0.00,6,Rain,115
2013-10-3,68,65,62,59,58,57,83,78,73,29.74,29.70,29.65,6,6,6,10,9,,0.00,3,,132
2013-10-4,,,,,,,,,,,,,,,,,,,,,,
2013-10-5,,,,,,,,,,,,,,,,,,,,,,
2013-10-6,,,,,,,,,,,,,,,,,,,,,,
2013-10-7,62,61,60,59,57,55,94,84,77,30.12,30.11,30.09,6,6,6,20,12,,0.00,6,,227
2013-10-8,57,56,55,54,51,50,88,82,77,30.15,30.14,30.12,6,6,6,17,12,,0.00,6,,249
2013-10-9,51,50,48,46,41,37,87,71,58,30.04,29.99,29.98,6,6,6,24,17,33,0.00,3,Rain,281
2013-10-10,50,47,44,39,38,36,76,66,62,30.27,30.26,30.24,6,6,6,16,12,26,0.00,3,,5
2013-10-11,53,52,50,48,46,45,88,80,76,30.42,30.40,30.39,6,6,6,15,12,,0.00,5,,50
2013-10-12,,,,,,,,,,,,,,,,,,,,,,
2013-10-13,,,,,,,,,,,,,,,,,,,,,,
2013-10-14,53,52,50,46,46,45,82,82,77,29.89,29.88,29.86,6,6,6,16,14,28,0.00,4,,49
2013-10-15,53,52,50,50,48,46,94,87,77,29.92,29.89,29.86,6,6,2,13,7,,0.00,4,Rain,55
2013-10-16,51,48,44,48,46,43,94,86,82,29.83,29.69,29.50,6,6,4,16,9,,0.00,3,Rain,91
2013-10-17,55,52,48,50,49,46,94,85,82,29.86,29.82,29.77,6,6,6,14,6,,0.00,3,,249
2013-10-18,53,50,48,50,48,46,94,87,82,29.95,29.90,29.83,6,6,6,14,11,,0.00,3,Rain,84
2013-10-19,,,,,,,,,,,,,,,,,,,,,,
2013-10-20,,,,,,,,,,,,,,,,,,,,,,
2013-10-21,57,54,53,55,51,50,94,90,82,29.53,29.44,29.36,6,5,2,10,7,,0.00,4,Rain,122
2013-10-22,59,57,55,55,55,54,100,90,88,29.21,29.18,29.15,6,6,5,12,8,,0.00,5,Rain,195
2013-10-23,53,52,50,54,48,43,100,85,76,29.42,29.24,29.06,6,6,3,25,17,32,0.00,5,Rain,256
2013-10-24,57,50,44,46,44,43,93,75,63,29.89,29.88,29.83,6,6,6,8,5,,0.00,1,,252
2013-10-25,60,56,51,54,53,50,94,84,77,29.47,29.42,29.39,6,6,5,17,10,31,0.00,6,Rain,184
2013-10-26,,,,,,,,,,,,,,,,,,,,,,
2013-10-27,,,,,,,,,,,,,,,,,,,,,,
2013-10-28,51,50,48,46,45,41,93,84,76,29.21,29.08,28.94,6,6,5,22,14,,0.00,3,,253
2013-10-29,50,47,44,45,42,39,87,81,76,29.77,29.69,29.62,6,6,6,16,14,,0.00,3,,254
2013-10-30,51,48,44,46,44,39,87,81,76,29.95,29.82,29.68,6,6,5,23,13,34,0.00,4,Rain,184
2013-10-31,53,50,48,46,45,41,87,77,71,29.80,29.73,29.68,6,6,6,23,16,36,0.00,4,,226